Terminal Aerodrome Forecast
Issued by NWS Atlanta, GA

Home | Current Version | Previous Version | Text Only | Print | Product List | Glossary On
Versions: 1 2 3 4 5 6 7 8 9 10 11 12 13 14 15 16 17 18 19 20 21 22 23 24 25 26 27 28 29 30 31 32 33 34 35
053
FTUS42 KFFC 121419 AAA
TAFATL
TAF AMD
KATL 121419Z 1214/1318 04003KT P6SM SCT050 BKN120
     FM121500 02005KT P6SM BKN050
     FM121800 29007KT P6SM SCT045
     FM122100 29010G20KT P6SM FEW050
     FM130400 32014G22KT P6SM SKC=

USA.gov is the U.S. government's official web portal to all federal, state and local government web resources and services.